<?xml version="1.0" encoding="UTF-8" standalone="yes"?>
<gpx
 xmlns="http://www.topografix.com/GPX/1/1"
 creator="OziExplorer Version 3956a - http://www.oziexplorer.com"
 version="1.1"
 xmlns:xsi="http://www.w3.org/2001/XMLSchema-instance"
 xsi:schemaLocation="http://www.topografix.com/GPX/1/1 http://www.topografix.com/GPX/1/1/gpx.xsd">
<metadata>
 <time>2015-02-04T14:06:52Z</time>
 <bounds minlat="40.539410" minlon="14.201323" maxlat="40.545614" maxlon="14.223281"/>
</metadata>
<wpt lat="40.5453710" lon="14.2232810">
 <ele>587.813354</ele>
 <time>2015-01-29T09:13:02.000Z</time>
 <name>Stazione seggiovia</name>
 <sym>Flag, Blue</sym>
</wpt>
<wpt lat="40.5455980" lon="14.2232150">
 <ele>572.000000</ele>
 <time>2015-01-29T09:27:25.000Z</time>
 <name>Inizio 392</name>
 <sym>Trail Head</sym>
</wpt>
<wpt lat="40.5424000" lon="14.2179900">
 <ele>499.116547</ele>
 <time>2015-01-29T09:52:27.000Z</time>
 <name>Pini</name>
 <sym>Flag, Blue</sym>
</wpt>
<wpt lat="40.5394110" lon="14.2097490">
 <ele>310.000000</ele>
 <time>2015-01-29T10:30:53.000Z</time>
 <name>Belvedere di Migliara</name>
 <sym>Flag, Blue</sym>
</wpt>
<wpt lat="40.5400140" lon="14.2093660">
 <ele>299.000000</ele>
 <time>2015-01-29T10:34:53.000Z</time>
 <name>Bivio Migliara</name>
 <sym>Flag, Blue</sym>
</wpt>
<wpt lat="40.5413200" lon="14.2034680">
 <ele>206.189575</ele>
 <time>2015-01-29T10:50:20.000Z</time>
 <name>Bivio 391-1</name>
 <sym>Flag, Blue</sym>
</wpt>
<wpt lat="40.5417180" lon="14.2029550">
 <ele>199.430527</ele>
 <time>2015-01-29T10:52:14.000Z</time>
 <name>Bivio 391-2</name>
 <sym>Flag, Blue</sym>
</wpt>
<wpt lat="40.5416730" lon="14.2013270">
 <ele>115.797287</ele>
 <time>2015-01-29T11:00:03.000Z</time>
 <name>Bivio 391-3</name>
 <sym>Flag, Blue</sym>
</wpt>
<wpt lat="40.5411170" lon="14.2017030">
 <ele>109.562119</ele>
 <time>2015-01-29T11:01:59.000Z</time>
 <name>Bivio fortini</name>
 <sym>Flag, Blue</sym>
</wpt>
<trk>
 <name>392 - Difficoltà: EE</name>
 <desc>392 - Difficoltà: EE</desc>
<trkseg>
<trkpt lat="40.5456140" lon="14.2232414">
<ele>571.640015</ele>
<time>2015-01-29T09:10:04.000Z</time>
</trkpt>
<trkpt lat="40.5456058" lon="14.2232044">
<ele>570.679993</ele>
<time>2015-01-29T09:32:01.000Z</time>
</trkpt>
<trkpt lat="40.5455801" lon="14.2231871">
<ele>570.679993</ele>
<time>2015-01-29T09:32:06.000Z</time>
</trkpt>
<trkpt lat="40.5455090" lon="14.2231372">
<ele>570.679993</ele>
<time>2015-01-29T09:32:17.000Z</time>
</trkpt>
<trkpt lat="40.5454682" lon="14.2230805">
<ele>570.679993</ele>
<time>2015-01-29T09:32:26.000Z</time>
</trkpt>
<trkpt lat="40.5454432" lon="14.2230237">
<ele>569.239990</ele>
<time>2015-01-29T09:32:38.000Z</time>
</trkpt>
<trkpt lat="40.5454614" lon="14.2229903">
<ele>567.799988</ele>
<time>2015-01-29T09:32:50.000Z</time>
</trkpt>
<trkpt lat="40.5454833" lon="14.2229509">
<ele>564.429993</ele>
<time>2015-01-29T09:33:03.000Z</time>
</trkpt>
<trkpt lat="40.5454800" lon="14.2229486">
<ele>567.799988</ele>
<time>2015-01-29T09:33:04.000Z</time>
</trkpt>
<trkpt lat="40.5454302" lon="14.2228646">
<ele>564.909973</ele>
<time>2015-01-29T09:33:13.000Z</time>
</trkpt>
<trkpt lat="40.5453495" lon="14.2228121">
<ele>564.429993</ele>
<time>2015-01-29T09:33:24.000Z</time>
</trkpt>
<trkpt lat="40.5453114" lon="14.2227856">
<ele>562.989990</ele>
<time>2015-01-29T09:33:31.000Z</time>
</trkpt>
<trkpt lat="40.5452553" lon="14.2227243">
<ele>561.070007</ele>
<time>2015-01-29T09:33:43.000Z</time>
</trkpt>
<trkpt lat="40.5452130" lon="14.2226889">
<ele>559.619995</ele>
<time>2015-01-29T09:33:54.000Z</time>
</trkpt>
<trkpt lat="40.5452006" lon="14.2226974">
<ele>559.619995</ele>
<time>2015-01-29T09:34:02.000Z</time>
</trkpt>
<trkpt lat="40.5451349" lon="14.2226597">
<ele>558.659973</ele>
<time>2015-01-29T09:34:16.000Z</time>
</trkpt>
<trkpt lat="40.5450696" lon="14.2226043">
<ele>557.220032</ele>
<time>2015-01-29T09:34:27.000Z</time>
</trkpt>
<trkpt lat="40.5449859" lon="14.2225553">
<ele>555.299988</ele>
<time>2015-01-29T09:34:40.000Z</time>
</trkpt>
<trkpt lat="40.5449222" lon="14.2224928">
<ele>552.899963</ele>
<time>2015-01-29T09:34:52.000Z</time>
</trkpt>
<trkpt lat="40.5448459" lon="14.2224494">
<ele>551.450012</ele>
<time>2015-01-29T09:35:03.000Z</time>
</trkpt>
<trkpt lat="40.5447818" lon="14.2223965">
<ele>549.529968</ele>
<time>2015-01-29T09:35:15.000Z</time>
</trkpt>
<trkpt lat="40.5447345" lon="14.2223463">
<ele>547.609985</ele>
<time>2015-01-29T09:35:26.000Z</time>
</trkpt>
<trkpt lat="40.5447285" lon="14.2223373">
<ele>546.649963</ele>
<time>2015-01-29T09:35:28.000Z</time>
</trkpt>
<trkpt lat="40.5446767" lon="14.2222854">
<ele>544.239990</ele>
<time>2015-01-29T09:35:39.000Z</time>
</trkpt>
<trkpt lat="40.5446183" lon="14.2222372">
<ele>541.840027</ele>
<time>2015-01-29T09:35:51.000Z</time>
</trkpt>
<trkpt lat="40.5445656" lon="14.2222170">
<ele>540.399963</ele>
<time>2015-01-29T09:36:01.000Z</time>
</trkpt>
<trkpt lat="40.5445018" lon="14.2222243">
<ele>539.440002</ele>
<time>2015-01-29T09:36:12.000Z</time>
</trkpt>
<trkpt lat="40.5444476" lon="14.2221711">
<ele>538.479980</ele>
<time>2015-01-29T09:37:28.000Z</time>
</trkpt>
<trkpt lat="40.5443550" lon="14.2220914">
<ele>538.479980</ele>
<time>2015-01-29T09:37:41.000Z</time>
</trkpt>
<trkpt lat="40.5442898" lon="14.2220533">
<ele>539.440002</ele>
<time>2015-01-29T09:37:51.000Z</time>
</trkpt>
<trkpt lat="40.5442224" lon="14.2219945">
<ele>539.440002</ele>
<time>2015-01-29T09:38:01.000Z</time>
</trkpt>
<trkpt lat="40.5441738" lon="14.2219521">
<ele>540.399963</ele>
<time>2015-01-29T09:38:12.000Z</time>
</trkpt>
<trkpt lat="40.5441101" lon="14.2219004">
<ele>540.880005</ele>
<time>2015-01-29T09:38:27.000Z</time>
</trkpt>
<trkpt lat="40.5440516" lon="14.2218560">
<ele>541.840027</ele>
<time>2015-01-29T09:38:37.000Z</time>
</trkpt>
<trkpt lat="40.5440338" lon="14.2218398">
<ele>541.359985</ele>
<time>2015-01-29T09:38:40.000Z</time>
</trkpt>
<trkpt lat="40.5439638" lon="14.2217630">
<ele>540.880005</ele>
<time>2015-01-29T09:38:52.000Z</time>
</trkpt>
<trkpt lat="40.5439188" lon="14.2216872">
<ele>539.919983</ele>
<time>2015-01-29T09:39:03.000Z</time>
</trkpt>
<trkpt lat="40.5438843" lon="14.2216473">
<ele>538.960022</ele>
<time>2015-01-29T09:39:10.000Z</time>
</trkpt>
<trkpt lat="40.5438141" lon="14.2215972">
<ele>540.880005</ele>
<time>2015-01-29T09:39:21.000Z</time>
</trkpt>
<trkpt lat="40.5437572" lon="14.2215469">
<ele>539.440002</ele>
<time>2015-01-29T09:39:31.000Z</time>
</trkpt>
<trkpt lat="40.5437499" lon="14.2215404">
<ele>538.960022</ele>
<time>2015-01-29T09:39:32.000Z</time>
</trkpt>
<trkpt lat="40.5436918" lon="14.2214726">
<ele>537.510010</ele>
<time>2015-01-29T09:39:44.000Z</time>
</trkpt>
<trkpt lat="40.5436771" lon="14.2214650">
<ele>537.989990</ele>
<time>2015-01-29T09:39:46.000Z</time>
</trkpt>
<trkpt lat="40.5436313" lon="14.2214388">
<ele>539.440002</ele>
<time>2015-01-29T09:39:54.000Z</time>
</trkpt>
<trkpt lat="40.5435657" lon="14.2213853">
<ele>538.960022</ele>
<time>2015-01-29T09:40:04.000Z</time>
</trkpt>
<trkpt lat="40.5435131" lon="14.2213449">
<ele>541.359985</ele>
<time>2015-01-29T09:40:14.000Z</time>
</trkpt>
<trkpt lat="40.5435111" lon="14.2213378">
<ele>540.880005</ele>
<time>2015-01-29T09:40:15.000Z</time>
</trkpt>
<trkpt lat="40.5434342" lon="14.2212802">
<ele>540.880005</ele>
<time>2015-01-29T09:40:26.000Z</time>
</trkpt>
<trkpt lat="40.5433417" lon="14.2211738">
<ele>541.840027</ele>
<time>2015-01-29T09:40:39.000Z</time>
</trkpt>
<trkpt lat="40.5432609" lon="14.2210756">
<ele>543.760010</ele>
<time>2015-01-29T09:40:52.000Z</time>
</trkpt>
<trkpt lat="40.5431477" lon="14.2209727">
<ele>543.760010</ele>
<time>2015-01-29T09:41:06.000Z</time>
</trkpt>
<trkpt lat="40.5431050" lon="14.2209563">
<ele>544.239990</ele>
<time>2015-01-29T09:41:15.000Z</time>
</trkpt>
<trkpt lat="40.5431112" lon="14.2209560">
<ele>544.239990</ele>
<time>2015-01-29T09:41:25.000Z</time>
</trkpt>
<trkpt lat="40.5430216" lon="14.2208670">
<ele>544.720032</ele>
<time>2015-01-29T09:41:37.000Z</time>
</trkpt>
<trkpt lat="40.5429756" lon="14.2208037">
<ele>545.690002</ele>
<time>2015-01-29T09:41:47.000Z</time>
</trkpt>
<trkpt lat="40.5429575" lon="14.2207549">
<ele>544.720032</ele>
<time>2015-01-29T09:41:56.000Z</time>
</trkpt>
<trkpt lat="40.5429584" lon="14.2207363">
<ele>544.239990</ele>
<time>2015-01-29T09:42:07.000Z</time>
</trkpt>
<trkpt lat="40.5429159" lon="14.2206831">
<ele>543.760010</ele>
<time>2015-01-29T09:42:17.000Z</time>
</trkpt>
<trkpt lat="40.5428650" lon="14.2206506">
<ele>545.200012</ele>
<time>2015-01-29T09:42:27.000Z</time>
</trkpt>
<trkpt lat="40.5428224" lon="14.2205912">
<ele>545.200012</ele>
<time>2015-01-29T09:42:36.000Z</time>
</trkpt>
<trkpt lat="40.5427833" lon="14.2205011">
<ele>545.200012</ele>
<time>2015-01-29T09:44:50.000Z</time>
</trkpt>
<trkpt lat="40.5427419" lon="14.2203483">
<ele>544.239990</ele>
<time>2015-01-29T09:45:04.000Z</time>
</trkpt>
<trkpt lat="40.5427494" lon="14.2203121">
<ele>543.279968</ele>
<time>2015-01-29T09:45:09.000Z</time>
</trkpt>
<trkpt lat="40.5427513" lon="14.2202268">
<ele>541.840027</ele>
<time>2015-01-29T09:45:20.000Z</time>
</trkpt>
<trkpt lat="40.5427292" lon="14.2200804">
<ele>539.919983</ele>
<time>2015-01-29T09:45:33.000Z</time>
</trkpt>
<trkpt lat="40.5427376" lon="14.2199909">
<ele>537.989990</ele>
<time>2015-01-29T09:45:44.000Z</time>
</trkpt>
<trkpt lat="40.5427312" lon="14.2199556">
<ele>537.510010</ele>
<time>2015-01-29T09:45:53.000Z</time>
</trkpt>
<trkpt lat="40.5427271" lon="14.2198598">
<ele>535.590027</ele>
<time>2015-01-29T09:46:05.000Z</time>
</trkpt>
<trkpt lat="40.5427403" lon="14.2198505">
<ele>535.590027</ele>
<time>2015-01-29T09:46:18.000Z</time>
</trkpt>
<trkpt lat="40.5427290" lon="14.2198225">
<ele>534.630005</ele>
<time>2015-01-29T09:46:30.000Z</time>
</trkpt>
<trkpt lat="40.5427161" lon="14.2197661">
<ele>533.669983</ele>
<time>2015-01-29T09:46:40.000Z</time>
</trkpt>
<trkpt lat="40.5427191" lon="14.2197471">
<ele>532.229980</ele>
<time>2015-01-29T09:46:47.000Z</time>
</trkpt>
<trkpt lat="40.5427237" lon="14.2197205">
<ele>531.750000</ele>
<time>2015-01-29T09:46:55.000Z</time>
</trkpt>
<trkpt lat="40.5427312" lon="14.2196845">
<ele>530.789978</ele>
<time>2015-01-29T09:47:02.000Z</time>
</trkpt>
<trkpt lat="40.5427195" lon="14.2196317">
<ele>529.820007</ele>
<time>2015-01-29T09:47:11.000Z</time>
</trkpt>
<trkpt lat="40.5426983" lon="14.2195381">
<ele>528.380005</ele>
<time>2015-01-29T09:47:22.000Z</time>
</trkpt>
<trkpt lat="40.5426941" lon="14.2195283">
<ele>528.380005</ele>
<time>2015-01-29T09:47:23.000Z</time>
</trkpt>
<trkpt lat="40.5426592" lon="14.2194548">
<ele>527.419983</ele>
<time>2015-01-29T09:47:32.000Z</time>
</trkpt>
<trkpt lat="40.5426298" lon="14.2193806">
<ele>526.940002</ele>
<time>2015-01-29T09:47:42.000Z</time>
</trkpt>
<trkpt lat="40.5426205" lon="14.2193616">
<ele>528.380005</ele>
<time>2015-01-29T09:47:46.000Z</time>
</trkpt>
<trkpt lat="40.5426140" lon="14.2193029">
<ele>526.460022</ele>
<time>2015-01-29T09:47:55.000Z</time>
</trkpt>
<trkpt lat="40.5425818" lon="14.2192311">
<ele>525.979980</ele>
<time>2015-01-29T09:48:05.000Z</time>
</trkpt>
<trkpt lat="40.5425751" lon="14.2191911">
<ele>525.020020</ele>
<time>2015-01-29T09:48:16.000Z</time>
</trkpt>
<trkpt lat="40.5425537" lon="14.2191234">
<ele>524.059998</ele>
<time>2015-01-29T09:48:27.000Z</time>
</trkpt>
<trkpt lat="40.5425430" lon="14.2190884">
<ele>523.579956</ele>
<time>2015-01-29T09:48:37.000Z</time>
</trkpt>
<trkpt lat="40.5425223" lon="14.2190386">
<ele>523.579956</ele>
<time>2015-01-29T09:48:48.000Z</time>
</trkpt>
<trkpt lat="40.5424963" lon="14.2189853">
<ele>522.609985</ele>
<time>2015-01-29T09:48:59.000Z</time>
</trkpt>
<trkpt lat="40.5424995" lon="14.2189555">
<ele>521.169983</ele>
<time>2015-01-29T09:49:07.000Z</time>
</trkpt>
<trkpt lat="40.5425067" lon="14.2189300">
<ele>519.729980</ele>
<time>2015-01-29T09:49:18.000Z</time>
</trkpt>
<trkpt lat="40.5424992" lon="14.2189030">
<ele>518.770020</ele>
<time>2015-01-29T09:49:29.000Z</time>
</trkpt>
<trkpt lat="40.5425010" lon="14.2188909">
<ele>518.289978</ele>
<time>2015-01-29T09:49:43.000Z</time>
</trkpt>
<trkpt lat="40.5424829" lon="14.2188278">
<ele>516.369995</ele>
<time>2015-01-29T09:49:55.000Z</time>
</trkpt>
<trkpt lat="40.5424920" lon="14.2187382">
<ele>513.000000</ele>
<time>2015-01-29T09:50:06.000Z</time>
</trkpt>
<trkpt lat="40.5424753" lon="14.2186347">
<ele>512.039978</ele>
<time>2015-01-29T09:50:17.000Z</time>
</trkpt>
<trkpt lat="40.5424875" lon="14.2185275">
<ele>510.119995</ele>
<time>2015-01-29T09:50:28.000Z</time>
</trkpt>
<trkpt lat="40.5424829" lon="14.2184503">
<ele>508.670013</ele>
<time>2015-01-29T09:50:38.000Z</time>
</trkpt>
<trkpt lat="40.5424568" lon="14.2184274">
<ele>508.670013</ele>
<time>2015-01-29T09:50:42.000Z</time>
</trkpt>
<trkpt lat="40.5424099" lon="14.2183087">
<ele>508.190002</ele>
<time>2015-01-29T09:50:55.000Z</time>
</trkpt>
<trkpt lat="40.5424048" lon="14.2182073">
<ele>506.750031</ele>
<time>2015-01-29T09:51:08.000Z</time>
</trkpt>
<trkpt lat="40.5423990" lon="14.2181590">
<ele>505.309998</ele>
<time>2015-01-29T09:51:18.000Z</time>
</trkpt>
<trkpt lat="40.5424049" lon="14.2181049">
<ele>503.389984</ele>
<time>2015-01-29T09:51:30.000Z</time>
</trkpt>
<trkpt lat="40.5424067" lon="14.2180619">
<ele>501.950012</ele>
<time>2015-01-29T09:51:42.000Z</time>
</trkpt>
<trkpt lat="40.5424024" lon="14.2180171">
<ele>500.020020</ele>
<time>2015-01-29T09:51:55.000Z</time>
</trkpt>
<trkpt lat="40.5423974" lon="14.2180003">
<ele>500.979980</ele>
<time>2015-01-29T09:52:07.000Z</time>
</trkpt>
<trkpt lat="40.5424016" lon="14.2179846">
<ele>499.540009</ele>
<time>2015-01-29T09:52:31.000Z</time>
</trkpt>
<trkpt lat="40.5424072" lon="14.2179755">
<ele>500.979980</ele>
<time>2015-01-29T09:52:59.000Z</time>
</trkpt>
<trkpt lat="40.5424124" lon="14.2179255">
<ele>500.020020</ele>
<time>2015-01-29T09:53:10.000Z</time>
</trkpt>
<trkpt lat="40.5424124" lon="14.2178723">
<ele>498.579987</ele>
<time>2015-01-29T09:53:21.000Z</time>
</trkpt>
<trkpt lat="40.5424064" lon="14.2178420">
<ele>497.619995</ele>
<time>2015-01-29T09:53:24.000Z</time>
</trkpt>
<trkpt lat="40.5423948" lon="14.2178196">
<ele>498.100006</ele>
<time>2015-01-29T09:53:26.000Z</time>
</trkpt>
<trkpt lat="40.5423412" lon="14.2177447">
<ele>497.619995</ele>
<time>2015-01-29T09:53:37.000Z</time>
</trkpt>
<trkpt lat="40.5423099" lon="14.2177093">
<ele>498.100006</ele>
<time>2015-01-29T09:53:42.000Z</time>
</trkpt>
<trkpt lat="40.5422678" lon="14.2175816">
<ele>496.660004</ele>
<time>2015-01-29T09:53:55.000Z</time>
</trkpt>
<trkpt lat="40.5422386" lon="14.2175496">
<ele>496.179993</ele>
<time>2015-01-29T09:53:59.000Z</time>
</trkpt>
<trkpt lat="40.5422335" lon="14.2175300">
<ele>496.660004</ele>
<time>2015-01-29T09:54:01.000Z</time>
</trkpt>
<trkpt lat="40.5422151" lon="14.2174837">
<ele>496.660004</ele>
<time>2015-01-29T09:54:05.000Z</time>
</trkpt>
<trkpt lat="40.5421551" lon="14.2173863">
<ele>495.700012</ele>
<time>2015-01-29T09:54:17.000Z</time>
</trkpt>
<trkpt lat="40.5420698" lon="14.2173100">
<ele>496.179993</ele>
<time>2015-01-29T09:54:29.000Z</time>
</trkpt>
<trkpt lat="40.5420345" lon="14.2172613">
<ele>496.660004</ele>
<time>2015-01-29T09:54:40.000Z</time>
</trkpt>
<trkpt lat="40.5420048" lon="14.2172279">
<ele>497.139984</ele>
<time>2015-01-29T09:54:49.000Z</time>
</trkpt>
<trkpt lat="40.5419987" lon="14.2172063">
<ele>497.619995</ele>
<time>2015-01-29T09:54:56.000Z</time>
</trkpt>
<trkpt lat="40.5419547" lon="14.2171682">
<ele>497.139984</ele>
<time>2015-01-29T09:55:05.000Z</time>
</trkpt>
<trkpt lat="40.5419465" lon="14.2171397">
<ele>498.100006</ele>
<time>2015-01-29T09:55:14.000Z</time>
</trkpt>
<trkpt lat="40.5419379" lon="14.2171302">
<ele>498.100006</ele>
<time>2015-01-29T09:55:29.000Z</time>
</trkpt>
<trkpt lat="40.5419447" lon="14.2170958">
<ele>496.660004</ele>
<time>2015-01-29T09:55:41.000Z</time>
</trkpt>
<trkpt lat="40.5419767" lon="14.2170637">
<ele>494.259979</ele>
<time>2015-01-29T09:55:53.000Z</time>
</trkpt>
<trkpt lat="40.5420172" lon="14.2170761">
<ele>492.329987</ele>
<time>2015-01-29T09:56:05.000Z</time>
</trkpt>
<trkpt lat="40.5420463" lon="14.2171259">
<ele>490.410004</ele>
<time>2015-01-29T09:56:15.000Z</time>
</trkpt>
<trkpt lat="40.5420905" lon="14.2171398">
<ele>488.970001</ele>
<time>2015-01-29T09:56:26.000Z</time>
</trkpt>
<trkpt lat="40.5421155" lon="14.2171400">
<ele>488.489990</ele>
<time>2015-01-29T09:56:36.000Z</time>
</trkpt>
<trkpt lat="40.5421228" lon="14.2171394">
<ele>488.489990</ele>
<time>2015-01-29T09:56:38.000Z</time>
</trkpt>
<trkpt lat="40.5421752" lon="14.2171991">
<ele>488.489990</ele>
<time>2015-01-29T09:56:49.000Z</time>
</trkpt>
<trkpt lat="40.5422099" lon="14.2172008">
<ele>486.559998</ele>
<time>2015-01-29T09:56:59.000Z</time>
</trkpt>
<trkpt lat="40.5422608" lon="14.2172309">
<ele>485.600006</ele>
<time>2015-01-29T09:57:15.000Z</time>
</trkpt>
<trkpt lat="40.5422862" lon="14.2172459">
<ele>485.119995</ele>
<time>2015-01-29T09:57:24.000Z</time>
</trkpt>
<trkpt lat="40.5423305" lon="14.2172911">
<ele>484.640015</ele>
<time>2015-01-29T09:57:34.000Z</time>
</trkpt>
<trkpt lat="40.5423869" lon="14.2173196">
<ele>482.720001</ele>
<time>2015-01-29T09:57:45.000Z</time>
</trkpt>
<trkpt lat="40.5424205" lon="14.2173217">
<ele>481.280029</ele>
<time>2015-01-29T09:57:55.000Z</time>
</trkpt>
<trkpt lat="40.5424566" lon="14.2173480">
<ele>480.800018</ele>
<time>2015-01-29T09:58:08.000Z</time>
</trkpt>
<trkpt lat="40.5424690" lon="14.2173186">
<ele>478.869995</ele>
<time>2015-01-29T09:58:17.000Z</time>
</trkpt>
<trkpt lat="40.5424963" lon="14.2172764">
<ele>477.429993</ele>
<time>2015-01-29T09:58:30.000Z</time>
</trkpt>
<trkpt lat="40.5425480" lon="14.2172920">
<ele>475.029968</ele>
<time>2015-01-29T09:58:43.000Z</time>
</trkpt>
<trkpt lat="40.5425898" lon="14.2173184">
<ele>473.109985</ele>
<time>2015-01-29T09:58:55.000Z</time>
</trkpt>
<trkpt lat="40.5426068" lon="14.2172805">
<ele>471.660004</ele>
<time>2015-01-29T09:59:05.000Z</time>
</trkpt>
<trkpt lat="40.5426262" lon="14.2172745">
<ele>469.739990</ele>
<time>2015-01-29T09:59:16.000Z</time>
</trkpt>
<trkpt lat="40.5426134" lon="14.2172494">
<ele>468.300018</ele>
<time>2015-01-29T09:59:27.000Z</time>
</trkpt>
<trkpt lat="40.5426379" lon="14.2172302">
<ele>466.859985</ele>
<time>2015-01-29T09:59:36.000Z</time>
</trkpt>
<trkpt lat="40.5426500" lon="14.2172122">
<ele>465.420013</ele>
<time>2015-01-29T09:59:47.000Z</time>
</trkpt>
<trkpt lat="40.5426606" lon="14.2171728">
<ele>463.970001</ele>
<time>2015-01-29T09:59:59.000Z</time>
</trkpt>
<trkpt lat="40.5426802" lon="14.2171232">
<ele>462.050018</ele>
<time>2015-01-29T10:00:12.000Z</time>
</trkpt>
<trkpt lat="40.5426811" lon="14.2171013">
<ele>460.609985</ele>
<time>2015-01-29T10:00:21.000Z</time>
</trkpt>
<trkpt lat="40.5426941" lon="14.2170876">
<ele>460.130005</ele>
<time>2015-01-29T10:00:31.000Z</time>
</trkpt>
<trkpt lat="40.5426992" lon="14.2170763">
<ele>458.690002</ele>
<time>2015-01-29T10:00:40.000Z</time>
</trkpt>
<trkpt lat="40.5427209" lon="14.2170408">
<ele>456.759979</ele>
<time>2015-01-29T10:00:51.000Z</time>
</trkpt>
<trkpt lat="40.5427548" lon="14.2170372">
<ele>455.800018</ele>
<time>2015-01-29T10:01:01.000Z</time>
</trkpt>
<trkpt lat="40.5427691" lon="14.2170240">
<ele>453.880005</ele>
<time>2015-01-29T10:01:11.000Z</time>
</trkpt>
<trkpt lat="40.5428063" lon="14.2170404">
<ele>452.440002</ele>
<time>2015-01-29T10:01:21.000Z</time>
</trkpt>
<trkpt lat="40.5428514" lon="14.2170617">
<ele>451.000000</ele>
<time>2015-01-29T10:01:30.000Z</time>
</trkpt>
<trkpt lat="40.5428868" lon="14.2170749">
<ele>449.550018</ele>
<time>2015-01-29T10:01:39.000Z</time>
</trkpt>
<trkpt lat="40.5428911" lon="14.2170533">
<ele>448.109985</ele>
<time>2015-01-29T10:01:47.000Z</time>
</trkpt>
<trkpt lat="40.5429006" lon="14.2170249">
<ele>446.190002</ele>
<time>2015-01-29T10:01:57.000Z</time>
</trkpt>
<trkpt lat="40.5429097" lon="14.2169685">
<ele>444.269989</ele>
<time>2015-01-29T10:02:08.000Z</time>
</trkpt>
<trkpt lat="40.5428704" lon="14.2168989">
<ele>442.820007</ele>
<time>2015-01-29T10:02:20.000Z</time>
</trkpt>
<trkpt lat="40.5428394" lon="14.2168684">
<ele>440.899994</ele>
<time>2015-01-29T10:02:29.000Z</time>
</trkpt>
<trkpt lat="40.5428624" lon="14.2168287">
<ele>439.459991</ele>
<time>2015-01-29T10:02:41.000Z</time>
</trkpt>
<trkpt lat="40.5428853" lon="14.2168156">
<ele>438.500000</ele>
<time>2015-01-29T10:02:52.000Z</time>
</trkpt>
<trkpt lat="40.5428874" lon="14.2168023">
<ele>437.059998</ele>
<time>2015-01-29T10:03:02.000Z</time>
</trkpt>
<trkpt lat="40.5428931" lon="14.2167735">
<ele>436.580017</ele>
<time>2015-01-29T10:03:11.000Z</time>
</trkpt>
<trkpt lat="40.5429128" lon="14.2167502">
<ele>435.609985</ele>
<time>2015-01-29T10:03:22.000Z</time>
</trkpt>
<trkpt lat="40.5428754" lon="14.2167134">
<ele>433.690002</ele>
<time>2015-01-29T10:03:31.000Z</time>
</trkpt>
<trkpt lat="40.5429191" lon="14.2167139">
<ele>432.730011</ele>
<time>2015-01-29T10:03:41.000Z</time>
</trkpt>
<trkpt lat="40.5429328" lon="14.2167212">
<ele>432.730011</ele>
<time>2015-01-29T10:03:52.000Z</time>
</trkpt>
<trkpt lat="40.5429589" lon="14.2167279">
<ele>430.330017</ele>
<time>2015-01-29T10:04:02.000Z</time>
</trkpt>
<trkpt lat="40.5429758" lon="14.2167010">
<ele>428.889984</ele>
<time>2015-01-29T10:04:14.000Z</time>
</trkpt>
<trkpt lat="40.5430031" lon="14.2166704">
<ele>426.480011</ele>
<time>2015-01-29T10:04:25.000Z</time>
</trkpt>
<trkpt lat="40.5430041" lon="14.2166699">
<ele>425.519989</ele>
<time>2015-01-29T10:04:35.000Z</time>
</trkpt>
<trkpt lat="40.5430154" lon="14.2166760">
<ele>425.039978</ele>
<time>2015-01-29T10:04:49.000Z</time>
</trkpt>
<trkpt lat="40.5430217" lon="14.2166603">
<ele>423.600006</ele>
<time>2015-01-29T10:05:00.000Z</time>
</trkpt>
<trkpt lat="40.5430348" lon="14.2166276">
<ele>422.639984</ele>
<time>2015-01-29T10:05:10.000Z</time>
</trkpt>
<trkpt lat="40.5430408" lon="14.2165849">
<ele>420.709991</ele>
<time>2015-01-29T10:05:21.000Z</time>
</trkpt>
<trkpt lat="40.5430394" lon="14.2165556">
<ele>420.230011</ele>
<time>2015-01-29T10:05:33.000Z</time>
</trkpt>
<trkpt lat="40.5430440" lon="14.2165403">
<ele>418.309998</ele>
<time>2015-01-29T10:05:37.000Z</time>
</trkpt>
<trkpt lat="40.5430579" lon="14.2165233">
<ele>417.350006</ele>
<time>2015-01-29T10:05:48.000Z</time>
</trkpt>
<trkpt lat="40.5430679" lon="14.2165074">
<ele>416.389984</ele>
<time>2015-01-29T10:05:57.000Z</time>
</trkpt>
<trkpt lat="40.5430652" lon="14.2164992">
<ele>413.980011</ele>
<time>2015-01-29T10:06:08.000Z</time>
</trkpt>
<trkpt lat="40.5430702" lon="14.2164754">
<ele>413.500000</ele>
<time>2015-01-29T10:06:21.000Z</time>
</trkpt>
<trkpt lat="40.5430546" lon="14.2164521">
<ele>413.019989</ele>
<time>2015-01-29T10:06:35.000Z</time>
</trkpt>
<trkpt lat="40.5430649" lon="14.2164467">
<ele>413.019989</ele>
<time>2015-01-29T10:06:59.000Z</time>
</trkpt>
<trkpt lat="40.5431140" lon="14.2163953">
<ele>410.619995</ele>
<time>2015-01-29T10:07:13.000Z</time>
</trkpt>
<trkpt lat="40.5431303" lon="14.2163694">
<ele>409.180023</ele>
<time>2015-01-29T10:07:24.000Z</time>
</trkpt>
<trkpt lat="40.5431320" lon="14.2163373">
<ele>408.700012</ele>
<time>2015-01-29T10:07:37.000Z</time>
</trkpt>
<trkpt lat="40.5431062" lon="14.2163022">
<ele>409.660004</ele>
<time>2015-01-29T10:08:00.000Z</time>
</trkpt>
<trkpt lat="40.5431229" lon="14.2162856">
<ele>407.739990</ele>
<time>2015-01-29T10:08:14.000Z</time>
</trkpt>
<trkpt lat="40.5431437" lon="14.2162715">
<ele>406.289978</ele>
<time>2015-01-29T10:08:25.000Z</time>
</trkpt>
<trkpt lat="40.5431447" lon="14.2162516">
<ele>404.850006</ele>
<time>2015-01-29T10:08:35.000Z</time>
</trkpt>
<trkpt lat="40.5431915" lon="14.2162473">
<ele>402.930023</ele>
<time>2015-01-29T10:08:45.000Z</time>
</trkpt>
<trkpt lat="40.5432020" lon="14.2162324">
<ele>401.010010</ele>
<time>2015-01-29T10:08:54.000Z</time>
</trkpt>
<trkpt lat="40.5432396" lon="14.2162124">
<ele>398.600006</ele>
<time>2015-01-29T10:09:07.000Z</time>
</trkpt>
<trkpt lat="40.5432774" lon="14.2161760">
<ele>396.680023</ele>
<time>2015-01-29T10:09:19.000Z</time>
</trkpt>
<trkpt lat="40.5432693" lon="14.2160917">
<ele>394.760010</ele>
<time>2015-01-29T10:09:32.000Z</time>
</trkpt>
<trkpt lat="40.5432673" lon="14.2160245">
<ele>391.389984</ele>
<time>2015-01-29T10:09:43.000Z</time>
</trkpt>
<trkpt lat="40.5432692" lon="14.2159381">
<ele>389.470001</ele>
<time>2015-01-29T10:09:55.000Z</time>
</trkpt>
<trkpt lat="40.5432760" lon="14.2158904">
<ele>387.549988</ele>
<time>2015-01-29T10:10:06.000Z</time>
</trkpt>
<trkpt lat="40.5432789" lon="14.2158078">
<ele>386.110016</ele>
<time>2015-01-29T10:10:18.000Z</time>
</trkpt>
<trkpt lat="40.5432562" lon="14.2157141">
<ele>383.700012</ele>
<time>2015-01-29T10:10:31.000Z</time>
</trkpt>
<trkpt lat="40.5432504" lon="14.2156423">
<ele>381.299988</ele>
<time>2015-01-29T10:10:42.000Z</time>
</trkpt>
<trkpt lat="40.5432016" lon="14.2155729">
<ele>380.820007</ele>
<time>2015-01-29T10:10:52.000Z</time>
</trkpt>
<trkpt lat="40.5431790" lon="14.2154896">
<ele>379.380005</ele>
<time>2015-01-29T10:11:04.000Z</time>
</trkpt>
<trkpt lat="40.5431739" lon="14.2154482">
<ele>379.380005</ele>
<time>2015-01-29T10:11:16.000Z</time>
</trkpt>
<trkpt lat="40.5431559" lon="14.2153899">
<ele>376.970001</ele>
<time>2015-01-29T10:11:28.000Z</time>
</trkpt>
<trkpt lat="40.5431438" lon="14.2153086">
<ele>375.049988</ele>
<time>2015-01-29T10:11:40.000Z</time>
</trkpt>
<trkpt lat="40.5431285" lon="14.2152333">
<ele>372.169983</ele>
<time>2015-01-29T10:11:54.000Z</time>
</trkpt>
<trkpt lat="40.5431182" lon="14.2151451">
<ele>371.689972</ele>
<time>2015-01-29T10:12:05.000Z</time>
</trkpt>
<trkpt lat="40.5430900" lon="14.2150531">
<ele>370.730011</ele>
<time>2015-01-29T10:12:16.000Z</time>
</trkpt>
<trkpt lat="40.5430650" lon="14.2149842">
<ele>369.279999</ele>
<time>2015-01-29T10:12:27.000Z</time>
</trkpt>
<trkpt lat="40.5430426" lon="14.2148971">
<ele>367.839996</ele>
<time>2015-01-29T10:12:38.000Z</time>
</trkpt>
<trkpt lat="40.5430256" lon="14.2148772">
<ele>368.320007</ele>
<time>2015-01-29T10:12:52.000Z</time>
</trkpt>
<trkpt lat="40.5430163" lon="14.2148650">
<ele>367.839996</ele>
<time>2015-01-29T10:13:09.000Z</time>
</trkpt>
<trkpt lat="40.5430007" lon="14.2148420">
<ele>368.320007</ele>
<time>2015-01-29T10:14:37.000Z</time>
</trkpt>
<trkpt lat="40.5429639" lon="14.2147830">
<ele>367.839996</ele>
<time>2015-01-29T10:14:49.000Z</time>
</trkpt>
<trkpt lat="40.5429570" lon="14.2147079">
<ele>365.919983</ele>
<time>2015-01-29T10:14:59.000Z</time>
</trkpt>
<trkpt lat="40.5429387" lon="14.2146530">
<ele>365.439972</ele>
<time>2015-01-29T10:15:09.000Z</time>
</trkpt>
<trkpt lat="40.5429020" lon="14.2145885">
<ele>364.000000</ele>
<time>2015-01-29T10:15:20.000Z</time>
</trkpt>
<trkpt lat="40.5428771" lon="14.2145138">
<ele>362.549988</ele>
<time>2015-01-29T10:15:30.000Z</time>
</trkpt>
<trkpt lat="40.5428472" lon="14.2144290">
<ele>361.589996</ele>
<time>2015-01-29T10:15:41.000Z</time>
</trkpt>
<trkpt lat="40.5428132" lon="14.2143234">
<ele>360.149994</ele>
<time>2015-01-29T10:15:54.000Z</time>
</trkpt>
<trkpt lat="40.5427880" lon="14.2142283">
<ele>359.189972</ele>
<time>2015-01-29T10:16:05.000Z</time>
</trkpt>
<trkpt lat="40.5427569" lon="14.2141513">
<ele>357.269989</ele>
<time>2015-01-29T10:16:17.000Z</time>
</trkpt>
<trkpt lat="40.5427234" lon="14.2140545">
<ele>355.829987</ele>
<time>2015-01-29T10:16:28.000Z</time>
</trkpt>
<trkpt lat="40.5427061" lon="14.2139991">
<ele>353.899994</ele>
<time>2015-01-29T10:16:38.000Z</time>
</trkpt>
<trkpt lat="40.5426883" lon="14.2139597">
<ele>354.380005</ele>
<time>2015-01-29T10:16:48.000Z</time>
</trkpt>
<trkpt lat="40.5426502" lon="14.2138848">
<ele>352.460022</ele>
<time>2015-01-29T10:16:59.000Z</time>
</trkpt>
<trkpt lat="40.5426328" lon="14.2138027">
<ele>350.059998</ele>
<time>2015-01-29T10:17:11.000Z</time>
</trkpt>
<trkpt lat="40.5425947" lon="14.2137321">
<ele>350.059998</ele>
<time>2015-01-29T10:17:22.000Z</time>
</trkpt>
<trkpt lat="40.5425889" lon="14.2137303">
<ele>351.019989</ele>
<time>2015-01-29T10:17:23.000Z</time>
</trkpt>
<trkpt lat="40.5425417" lon="14.2137340">
<ele>352.460022</ele>
<time>2015-01-29T10:17:34.000Z</time>
</trkpt>
<trkpt lat="40.5425315" lon="14.2137120">
<ele>351.980011</ele>
<time>2015-01-29T10:17:54.000Z</time>
</trkpt>
<trkpt lat="40.5424897" lon="14.2136716">
<ele>351.980011</ele>
<time>2015-01-29T10:18:11.000Z</time>
</trkpt>
<trkpt lat="40.5424295" lon="14.2136366">
<ele>351.980011</ele>
<time>2015-01-29T10:18:20.000Z</time>
</trkpt>
<trkpt lat="40.5423612" lon="14.2135838">
<ele>351.980011</ele>
<time>2015-01-29T10:18:31.000Z</time>
</trkpt>
<trkpt lat="40.5423452" lon="14.2135842">
<ele>351.980011</ele>
<time>2015-01-29T10:18:42.000Z</time>
</trkpt>
<trkpt lat="40.5423226" lon="14.2135542">
<ele>351.980011</ele>
<time>2015-01-29T10:18:58.000Z</time>
</trkpt>
<trkpt lat="40.5422930" lon="14.2135391">
<ele>352.460022</ele>
<time>2015-01-29T10:19:35.000Z</time>
</trkpt>
<trkpt lat="40.5422598" lon="14.2135108">
<ele>355.339996</ele>
<time>2015-01-29T10:19:46.000Z</time>
</trkpt>
<trkpt lat="40.5421818" lon="14.2134386">
<ele>356.309998</ele>
<time>2015-01-29T10:19:58.000Z</time>
</trkpt>
<trkpt lat="40.5421125" lon="14.2133763">
<ele>354.860016</ele>
<time>2015-01-29T10:20:10.000Z</time>
</trkpt>
<trkpt lat="40.5420713" lon="14.2133332">
<ele>355.339996</ele>
<time>2015-01-29T10:20:20.000Z</time>
</trkpt>
<trkpt lat="40.5420156" lon="14.2132716">
<ele>354.860016</ele>
<time>2015-01-29T10:20:31.000Z</time>
</trkpt>
<trkpt lat="40.5419594" lon="14.2132026">
<ele>354.380005</ele>
<time>2015-01-29T10:20:41.000Z</time>
</trkpt>
<trkpt lat="40.5418700" lon="14.2130908">
<ele>353.419983</ele>
<time>2015-01-29T10:20:55.000Z</time>
</trkpt>
<trkpt lat="40.5417969" lon="14.2130298">
<ele>353.899994</ele>
<time>2015-01-29T10:21:04.000Z</time>
</trkpt>
<trkpt lat="40.5417286" lon="14.2129657">
<ele>353.419983</ele>
<time>2015-01-29T10:21:14.000Z</time>
</trkpt>
<trkpt lat="40.5416757" lon="14.2129278">
<ele>353.419983</ele>
<time>2015-01-29T10:21:24.000Z</time>
</trkpt>
<trkpt lat="40.5415805" lon="14.2128353">
<ele>353.899994</ele>
<time>2015-01-29T10:21:35.000Z</time>
</trkpt>
<trkpt lat="40.5414511" lon="14.2127363">
<ele>352.460022</ele>
<time>2015-01-29T10:21:49.000Z</time>
</trkpt>
<trkpt lat="40.5414432" lon="14.2127295">
<ele>352.460022</ele>
<time>2015-01-29T10:21:50.000Z</time>
</trkpt>
<trkpt lat="40.5414109" lon="14.2126077">
<ele>349.579987</ele>
<time>2015-01-29T10:22:03.000Z</time>
</trkpt>
<trkpt lat="40.5414148" lon="14.2125335">
<ele>347.169983</ele>
<time>2015-01-29T10:22:15.000Z</time>
</trkpt>
<trkpt lat="40.5414132" lon="14.2125248">
<ele>347.169983</ele>
<time>2015-01-29T10:22:16.000Z</time>
</trkpt>
<trkpt lat="40.5413908" lon="14.2124532">
<ele>345.730011</ele>
<time>2015-01-29T10:22:23.000Z</time>
</trkpt>
<trkpt lat="40.5413059" lon="14.2123741">
<ele>344.769989</ele>
<time>2015-01-29T10:22:35.000Z</time>
</trkpt>
<trkpt lat="40.5412054" lon="14.2122844">
<ele>344.290009</ele>
<time>2015-01-29T10:22:48.000Z</time>
</trkpt>
<trkpt lat="40.5410837" lon="14.2121720">
<ele>343.329987</ele>
<time>2015-01-29T10:23:00.000Z</time>
</trkpt>
<trkpt lat="40.5409749" lon="14.2120782">
<ele>341.890015</ele>
<time>2015-01-29T10:23:12.000Z</time>
</trkpt>
<trkpt lat="40.5409333" lon="14.2119819">
<ele>340.439972</ele>
<time>2015-01-29T10:23:23.000Z</time>
</trkpt>
<trkpt lat="40.5409316" lon="14.2119686">
<ele>339.480011</ele>
<time>2015-01-29T10:23:25.000Z</time>
</trkpt>
<trkpt lat="40.5408931" lon="14.2118746">
<ele>338.040009</ele>
<time>2015-01-29T10:23:36.000Z</time>
</trkpt>
<trkpt lat="40.5408209" lon="14.2117970">
<ele>337.559998</ele>
<time>2015-01-29T10:23:49.000Z</time>
</trkpt>
<trkpt lat="40.5407639" lon="14.2116902">
<ele>336.119995</ele>
<time>2015-01-29T10:23:59.000Z</time>
</trkpt>
<trkpt lat="40.5406920" lon="14.2115947">
<ele>334.679993</ele>
<time>2015-01-29T10:24:11.000Z</time>
</trkpt>
<trkpt lat="40.5406398" lon="14.2114924">
<ele>330.830017</ele>
<time>2015-01-29T10:24:23.000Z</time>
</trkpt>
<trkpt lat="40.5405778" lon="14.2113852">
<ele>329.390015</ele>
<time>2015-01-29T10:24:38.000Z</time>
</trkpt>
<trkpt lat="40.5405269" lon="14.2113027">
<ele>327.949982</ele>
<time>2015-01-29T10:24:48.000Z</time>
</trkpt>
<trkpt lat="40.5405025" lon="14.2111738">
<ele>326.019989</ele>
<time>2015-01-29T10:25:01.000Z</time>
</trkpt>
<trkpt lat="40.5404615" lon="14.2110992">
<ele>324.580017</ele>
<time>2015-01-29T10:25:12.000Z</time>
</trkpt>
<trkpt lat="40.5403871" lon="14.2110629">
<ele>324.100006</ele>
<time>2015-01-29T10:25:22.000Z</time>
</trkpt>
<trkpt lat="40.5403320" lon="14.2110011">
<ele>323.619995</ele>
<time>2015-01-29T10:25:30.000Z</time>
</trkpt>
<trkpt lat="40.5403197" lon="14.2109485">
<ele>323.619995</ele>
<time>2015-01-29T10:25:39.000Z</time>
</trkpt>
<trkpt lat="40.5403081" lon="14.2109273">
<ele>324.100006</ele>
<time>2015-01-29T10:25:52.000Z</time>
</trkpt>
<trkpt lat="40.5402769" lon="14.2109021">
<ele>324.580017</ele>
<time>2015-01-29T10:26:18.000Z</time>
</trkpt>
<trkpt lat="40.5402364" lon="14.2108852">
<ele>325.059998</ele>
<time>2015-01-29T10:26:29.000Z</time>
</trkpt>
<trkpt lat="40.5402337" lon="14.2109047">
<ele>324.580017</ele>
<time>2015-01-29T10:26:42.000Z</time>
</trkpt>
<trkpt lat="40.5402273" lon="14.2109091">
<ele>325.059998</ele>
<time>2015-01-29T10:27:01.000Z</time>
</trkpt>
<trkpt lat="40.5402346" lon="14.2108963">
<ele>324.580017</ele>
<time>2015-01-29T10:27:20.000Z</time>
</trkpt>
<trkpt lat="40.5402440" lon="14.2108447">
<ele>325.059998</ele>
<time>2015-01-29T10:27:33.000Z</time>
</trkpt>
<trkpt lat="40.5402732" lon="14.2107907">
<ele>323.140015</ele>
<time>2015-01-29T10:27:43.000Z</time>
</trkpt>
<trkpt lat="40.5402343" lon="14.2107097">
<ele>322.660004</ele>
<time>2015-01-29T10:27:52.000Z</time>
</trkpt>
<trkpt lat="40.5401935" lon="14.2105927">
<ele>321.699982</ele>
<time>2015-01-29T10:28:04.000Z</time>
</trkpt>
<trkpt lat="40.5401771" lon="14.2105262">
<ele>319.779999</ele>
<time>2015-01-29T10:28:15.000Z</time>
</trkpt>
<trkpt lat="40.5401092" lon="14.2104769">
<ele>319.779999</ele>
<time>2015-01-29T10:28:26.000Z</time>
</trkpt>
<trkpt lat="40.5400410" lon="14.2104061">
<ele>319.299988</ele>
<time>2015-01-29T10:28:37.000Z</time>
</trkpt>
<trkpt lat="40.5400084" lon="14.2103457">
<ele>317.850006</ele>
<time>2015-01-29T10:28:44.000Z</time>
</trkpt>
<trkpt lat="40.5399517" lon="14.2102793">
<ele>315.929993</ele>
<time>2015-01-29T10:28:55.000Z</time>
</trkpt>
<trkpt lat="40.5399319" lon="14.2102486">
<ele>315.449982</ele>
<time>2015-01-29T10:29:00.000Z</time>
</trkpt>
<trkpt lat="40.5398499" lon="14.2101678">
<ele>314.490021</ele>
<time>2015-01-29T10:29:10.000Z</time>
</trkpt>
<trkpt lat="40.5397595" lon="14.2101216">
<ele>314.490021</ele>
<time>2015-01-29T10:29:22.000Z</time>
</trkpt>
<trkpt lat="40.5396825" lon="14.2100792">
<ele>314.010010</ele>
<time>2015-01-29T10:29:33.000Z</time>
</trkpt>
<trkpt lat="40.5395619" lon="14.2100102">
<ele>313.049988</ele>
<time>2015-01-29T10:29:45.000Z</time>
</trkpt>
<trkpt lat="40.5395245" lon="14.2099233">
<ele>311.600006</ele>
<time>2015-01-29T10:29:56.000Z</time>
</trkpt>
<trkpt lat="40.5394773" lon="14.2098333">
<ele>311.119995</ele>
<time>2015-01-29T10:30:07.000Z</time>
</trkpt>
<trkpt lat="40.5394095" lon="14.2097725">
<ele>310.639984</ele>
<time>2015-01-29T10:30:20.000Z</time>
</trkpt>
<trkpt lat="40.5394390" lon="14.2097950">
<ele>310.286407</ele>
<time>2015-01-29T10:32:36.000Z</time>
</trkpt>
<trkpt lat="40.5395670" lon="14.2097940">
<ele>308.152802</ele>
<time>2015-01-29T10:32:48.000Z</time>
</trkpt>
<trkpt lat="40.5396770" lon="14.2096930">
<ele>305.714386</ele>
<time>2015-01-29T10:33:03.000Z</time>
</trkpt>
<trkpt lat="40.5397790" lon="14.2096200">
<ele>304.495209</ele>
<time>2015-01-29T10:33:18.000Z</time>
</trkpt>
<trkpt lat="40.5398080" lon="14.2096880">
<ele>306.324005</ele>
<time>2015-01-29T10:33:34.000Z</time>
</trkpt>
<trkpt lat="40.5397940" lon="14.2096250">
<ele>304.799988</ele>
<time>2015-01-29T10:33:50.000Z</time>
</trkpt>
<trkpt lat="40.5398270" lon="14.2095210">
<ele>302.361603</ele>
<time>2015-01-29T10:34:03.000Z</time>
</trkpt>
<trkpt lat="40.5399310" lon="14.2094780">
<ele>299.618408</ele>
<time>2015-01-29T10:34:17.000Z</time>
</trkpt>
<trkpt lat="40.5400160" lon="14.2093740">
<ele>298.704010</ele>
<time>2015-01-29T10:34:31.000Z</time>
</trkpt>
<trkpt lat="40.5400260" lon="14.2093620">
<ele>299.008789</ele>
<time>2015-01-29T10:34:46.000Z</time>
</trkpt>
<trkpt lat="40.5399920" lon="14.2093460">
<ele>299.618408</ele>
<time>2015-01-29T10:35:06.000Z</time>
</trkpt>
<trkpt lat="40.5399910" lon="14.2093350">
<ele>299.008789</ele>
<time>2015-01-29T10:35:29.000Z</time>
</trkpt>
<trkpt lat="40.5399930" lon="14.2093420">
<ele>299.923187</ele>
<time>2015-01-29T10:35:51.000Z</time>
</trkpt>
<trkpt lat="40.5399870" lon="14.2093200">
<ele>299.923187</ele>
<time>2015-01-29T10:36:23.000Z</time>
</trkpt>
<trkpt lat="40.5400320" lon="14.2093010">
<ele>298.704010</ele>
<time>2015-01-29T10:36:43.000Z</time>
</trkpt>
<trkpt lat="40.5400390" lon="14.2092400">
<ele>298.094391</ele>
<time>2015-01-29T10:36:59.000Z</time>
</trkpt>
<trkpt lat="40.5400650" lon="14.2092290">
<ele>298.094391</ele>
<time>2015-01-29T10:37:21.000Z</time>
</trkpt>
<trkpt lat="40.5401510" lon="14.2091800">
<ele>295.351196</ele>
<time>2015-01-29T10:37:33.000Z</time>
</trkpt>
<trkpt lat="40.5401970" lon="14.2091310">
<ele>292.912811</ele>
<time>2015-01-29T10:37:47.000Z</time>
</trkpt>
<trkpt lat="40.5401950" lon="14.2091280">
<ele>293.827209</ele>
<time>2015-01-29T10:38:11.000Z</time>
</trkpt>
<trkpt lat="40.5402100" lon="14.2091220">
<ele>292.912811</ele>
<time>2015-01-29T10:38:14.000Z</time>
</trkpt>
<trkpt lat="40.5402580" lon="14.2089970">
<ele>289.559998</ele>
<time>2015-01-29T10:38:27.000Z</time>
</trkpt>
<trkpt lat="40.5402600" lon="14.2089010">
<ele>287.426392</ele>
<time>2015-01-29T10:38:38.000Z</time>
</trkpt>
<trkpt lat="40.5402390" lon="14.2088020">
<ele>287.121613</ele>
<time>2015-01-29T10:38:45.000Z</time>
</trkpt>
<trkpt lat="40.5402080" lon="14.2086700">
<ele>285.597595</ele>
<time>2015-01-29T10:38:57.000Z</time>
</trkpt>
<trkpt lat="40.5402050" lon="14.2086600">
<ele>285.292786</ele>
<time>2015-01-29T10:38:58.000Z</time>
</trkpt>
<trkpt lat="40.5401870" lon="14.2085480">
<ele>283.159210</ele>
<time>2015-01-29T10:39:09.000Z</time>
</trkpt>
<trkpt lat="40.5401330" lon="14.2084590">
<ele>282.854401</ele>
<time>2015-01-29T10:39:21.000Z</time>
</trkpt>
<trkpt lat="40.5400530" lon="14.2082780">
<ele>280.720795</ele>
<time>2015-01-29T10:39:36.000Z</time>
</trkpt>
<trkpt lat="40.5400510" lon="14.2082240">
<ele>280.415985</ele>
<time>2015-01-29T10:39:40.000Z</time>
</trkpt>
<trkpt lat="40.5400070" lon="14.2080060">
<ele>277.977600</ele>
<time>2015-01-29T10:39:55.000Z</time>
</trkpt>
<trkpt lat="40.5399710" lon="14.2078400">
<ele>275.539215</ele>
<time>2015-01-29T10:40:07.000Z</time>
</trkpt>
<trkpt lat="40.5399460" lon="14.2077390">
<ele>276.148804</ele>
<time>2015-01-29T10:40:19.000Z</time>
</trkpt>
<trkpt lat="40.5398660" lon="14.2076180">
<ele>273.710388</ele>
<time>2015-01-29T10:40:29.000Z</time>
</trkpt>
<trkpt lat="40.5398310" lon="14.2075270">
<ele>272.186401</ele>
<time>2015-01-29T10:40:35.000Z</time>
</trkpt>
<trkpt lat="40.5398330" lon="14.2073930">
<ele>270.662415</ele>
<time>2015-01-29T10:40:48.000Z</time>
</trkpt>
<trkpt lat="40.5397850" lon="14.2072020">
<ele>267.919189</ele>
<time>2015-01-29T10:41:02.000Z</time>
</trkpt>
<trkpt lat="40.5397690" lon="14.2070620">
<ele>264.566406</ele>
<time>2015-01-29T10:41:15.000Z</time>
</trkpt>
<trkpt lat="40.5397840" lon="14.2069270">
<ele>261.518402</ele>
<time>2015-01-29T10:41:28.000Z</time>
</trkpt>
<trkpt lat="40.5398060" lon="14.2068650">
<ele>259.079987</ele>
<time>2015-01-29T10:41:36.000Z</time>
</trkpt>
<trkpt lat="40.5398450" lon="14.2067980">
<ele>257.251190</ele>
<time>2015-01-29T10:41:47.000Z</time>
</trkpt>
<trkpt lat="40.5398530" lon="14.2067060">
<ele>253.898407</ele>
<time>2015-01-29T10:41:58.000Z</time>
</trkpt>
<trkpt lat="40.5398310" lon="14.2066130">
<ele>252.374405</ele>
<time>2015-01-29T10:42:07.000Z</time>
</trkpt>
<trkpt lat="40.5397700" lon="14.2064980">
<ele>250.545593</ele>
<time>2015-01-29T10:42:21.000Z</time>
</trkpt>
<trkpt lat="40.5397110" lon="14.2063470">
<ele>249.021606</ele>
<time>2015-01-29T10:42:34.000Z</time>
</trkpt>
<trkpt lat="40.5396770" lon="14.2062950">
<ele>249.021606</ele>
<time>2015-01-29T10:42:38.000Z</time>
</trkpt>
<trkpt lat="40.5395960" lon="14.2061650">
<ele>247.192795</ele>
<time>2015-01-29T10:42:50.000Z</time>
</trkpt>
<trkpt lat="40.5395750" lon="14.2060480">
<ele>244.449600</ele>
<time>2015-01-29T10:43:01.000Z</time>
</trkpt>
<trkpt lat="40.5395950" lon="14.2059840">
<ele>243.230392</ele>
<time>2015-01-29T10:43:09.000Z</time>
</trkpt>
<trkpt lat="40.5395610" lon="14.2058710">
<ele>242.011200</ele>
<time>2015-01-29T10:43:19.000Z</time>
</trkpt>
<trkpt lat="40.5395340" lon="14.2057020">
<ele>241.096802</ele>
<time>2015-01-29T10:43:31.000Z</time>
</trkpt>
<trkpt lat="40.5395090" lon="14.2055800">
<ele>239.572800</ele>
<time>2015-01-29T10:43:43.000Z</time>
</trkpt>
<trkpt lat="40.5395460" lon="14.2054910">
<ele>237.439194</ele>
<time>2015-01-29T10:43:57.000Z</time>
</trkpt>
<trkpt lat="40.5395720" lon="14.2053210">
<ele>236.220001</ele>
<time>2015-01-29T10:44:13.000Z</time>
</trkpt>
<trkpt lat="40.5395480" lon="14.2051900">
<ele>234.086395</ele>
<time>2015-01-29T10:44:22.000Z</time>
</trkpt>
<trkpt lat="40.5396030" lon="14.2050650">
<ele>231.952805</ele>
<time>2015-01-29T10:44:37.000Z</time>
</trkpt>
<trkpt lat="40.5396280" lon="14.2048440">
<ele>228.600006</ele>
<time>2015-01-29T10:44:49.000Z</time>
</trkpt>
<trkpt lat="40.5396440" lon="14.2047420">
<ele>226.161606</ele>
<time>2015-01-29T10:45:04.000Z</time>
</trkpt>
<trkpt lat="40.5397070" lon="14.2046230">
<ele>223.723206</ele>
<time>2015-01-29T10:45:16.000Z</time>
</trkpt>
<trkpt lat="40.5397810" lon="14.2044830">
<ele>220.675201</ele>
<time>2015-01-29T10:45:28.000Z</time>
</trkpt>
<trkpt lat="40.5398610" lon="14.2043350">
<ele>217.932007</ele>
<time>2015-01-29T10:45:43.000Z</time>
</trkpt>
<trkpt lat="40.5399230" lon="14.2041910">
<ele>215.798401</ele>
<time>2015-01-29T10:45:58.000Z</time>
</trkpt>
<trkpt lat="40.5400030" lon="14.2040820">
<ele>212.445602</ele>
<time>2015-01-29T10:46:13.000Z</time>
</trkpt>
<trkpt lat="40.5400830" lon="14.2039290">
<ele>209.092804</ele>
<time>2015-01-29T10:46:24.000Z</time>
</trkpt>
<trkpt lat="40.5401390" lon="14.2037970">
<ele>207.264008</ele>
<time>2015-01-29T10:46:37.000Z</time>
</trkpt>
<trkpt lat="40.5401400" lon="14.2036970">
<ele>205.435196</ele>
<time>2015-01-29T10:46:44.000Z</time>
</trkpt>
<trkpt lat="40.5402190" lon="14.2036210">
<ele>204.825607</ele>
<time>2015-01-29T10:46:55.000Z</time>
</trkpt>
<trkpt lat="40.5403090" lon="14.2035650">
<ele>203.606400</ele>
<time>2015-01-29T10:47:10.000Z</time>
</trkpt>
<trkpt lat="40.5404290" lon="14.2034180">
<ele>201.472794</ele>
<time>2015-01-29T10:47:27.000Z</time>
</trkpt>
<trkpt lat="40.5404480" lon="14.2032590">
<ele>200.558395</ele>
<time>2015-01-29T10:47:38.000Z</time>
</trkpt>
<trkpt lat="40.5404580" lon="14.2031690">
<ele>199.643997</ele>
<time>2015-01-29T10:47:54.000Z</time>
</trkpt>
<trkpt lat="40.5404710" lon="14.2031960">
<ele>199.034393</ele>
<time>2015-01-29T10:48:10.000Z</time>
</trkpt>
<trkpt lat="40.5404800" lon="14.2032510">
<ele>201.167999</ele>
<time>2015-01-29T10:48:17.000Z</time>
</trkpt>
<trkpt lat="40.5405020" lon="14.2033710">
<ele>201.167999</ele>
<time>2015-01-29T10:48:31.000Z</time>
</trkpt>
<trkpt lat="40.5405730" lon="14.2034110">
<ele>200.558395</ele>
<time>2015-01-29T10:48:44.000Z</time>
</trkpt>
<trkpt lat="40.5406920" lon="14.2034360">
<ele>199.948807</ele>
<time>2015-01-29T10:48:55.000Z</time>
</trkpt>
<trkpt lat="40.5408460" lon="14.2034400">
<ele>201.167999</ele>
<time>2015-01-29T10:49:07.000Z</time>
</trkpt>
<trkpt lat="40.5409580" lon="14.2033650">
<ele>200.558395</ele>
<time>2015-01-29T10:49:19.000Z</time>
</trkpt>
<trkpt lat="40.5410110" lon="14.2033860">
<ele>201.167999</ele>
<time>2015-01-29T10:49:30.000Z</time>
</trkpt>
<trkpt lat="40.5410530" lon="14.2034430">
<ele>202.996796</ele>
<time>2015-01-29T10:49:37.000Z</time>
</trkpt>
<trkpt lat="40.5410980" lon="14.2035030">
<ele>203.606400</ele>
<time>2015-01-29T10:49:46.000Z</time>
</trkpt>
<trkpt lat="40.5411520" lon="14.2035040">
<ele>203.911194</ele>
<time>2015-01-29T10:49:50.000Z</time>
</trkpt>
<trkpt lat="40.5413330" lon="14.2035160">
<ele>204.520798</ele>
<time>2015-01-29T10:50:05.000Z</time>
</trkpt>
<trkpt lat="40.5413200" lon="14.2034660">
<ele>206.349594</ele>
<time>2015-01-29T10:50:20.000Z</time>
</trkpt>
<trkpt lat="40.5413180" lon="14.2034020">
<ele>204.825607</ele>
<time>2015-01-29T10:51:02.000Z</time>
</trkpt>
<trkpt lat="40.5413240" lon="14.2032680">
<ele>204.520798</ele>
<time>2015-01-29T10:51:11.000Z</time>
</trkpt>
<trkpt lat="40.5413330" lon="14.2032420">
<ele>203.911194</ele>
<time>2015-01-29T10:51:14.000Z</time>
</trkpt>
<trkpt lat="40.5413830" lon="14.2030760">
<ele>202.387207</ele>
<time>2015-01-29T10:51:26.000Z</time>
</trkpt>
<trkpt lat="40.5414530" lon="14.2030690">
<ele>201.472794</ele>
<time>2015-01-29T10:51:37.000Z</time>
</trkpt>
<trkpt lat="40.5414970" lon="14.2030730">
<ele>201.472794</ele>
<time>2015-01-29T10:51:41.000Z</time>
</trkpt>
<trkpt lat="40.5415170" lon="14.2030730">
<ele>201.472794</ele>
<time>2015-01-29T10:51:44.000Z</time>
</trkpt>
<trkpt lat="40.5417050" lon="14.2029930">
<ele>199.948807</ele>
<time>2015-01-29T10:51:59.000Z</time>
</trkpt>
<trkpt lat="40.5417180" lon="14.2029580">
<ele>199.643997</ele>
<time>2015-01-29T10:52:12.000Z</time>
</trkpt>
<trkpt lat="40.5416870" lon="14.2029540">
<ele>198.729599</ele>
<time>2015-01-29T10:52:36.000Z</time>
</trkpt>
<trkpt lat="40.5416880" lon="14.2028720">
<ele>198.119995</ele>
<time>2015-01-29T10:53:01.000Z</time>
</trkpt>
<trkpt lat="40.5416650" lon="14.2027950">
<ele>196.595993</ele>
<time>2015-01-29T10:53:10.000Z</time>
</trkpt>
<trkpt lat="40.5416270" lon="14.2026990">
<ele>193.852798</ele>
<time>2015-01-29T10:53:21.000Z</time>
</trkpt>
<trkpt lat="40.5416490" lon="14.2026540">
<ele>192.328796</ele>
<time>2015-01-29T10:53:32.000Z</time>
</trkpt>
<trkpt lat="40.5417020" lon="14.2026500">
<ele>190.500000</ele>
<time>2015-01-29T10:53:41.000Z</time>
</trkpt>
<trkpt lat="40.5417480" lon="14.2026300">
<ele>188.671204</ele>
<time>2015-01-29T10:53:51.000Z</time>
</trkpt>
<trkpt lat="40.5417410" lon="14.2026040">
<ele>188.975998</ele>
<time>2015-01-29T10:54:07.000Z</time>
</trkpt>
<trkpt lat="40.5417380" lon="14.2025560">
<ele>186.232803</ele>
<time>2015-01-29T10:54:19.000Z</time>
</trkpt>
<trkpt lat="40.5417730" lon="14.2025370">
<ele>183.794403</ele>
<time>2015-01-29T10:54:31.000Z</time>
</trkpt>
<trkpt lat="40.5417890" lon="14.2025150">
<ele>180.746399</ele>
<time>2015-01-29T10:54:39.000Z</time>
</trkpt>
<trkpt lat="40.5418410" lon="14.2024630">
<ele>179.832001</ele>
<time>2015-01-29T10:54:53.000Z</time>
</trkpt>
<trkpt lat="40.5418460" lon="14.2024550">
<ele>178.307999</ele>
<time>2015-01-29T10:54:54.000Z</time>
</trkpt>
<trkpt lat="40.5418590" lon="14.2023970">
<ele>177.088806</ele>
<time>2015-01-29T10:55:06.000Z</time>
</trkpt>
<trkpt lat="40.5418430" lon="14.2023810">
<ele>174.040802</ele>
<time>2015-01-29T10:55:17.000Z</time>
</trkpt>
<trkpt lat="40.5418160" lon="14.2023470">
<ele>171.602402</ele>
<time>2015-01-29T10:55:25.000Z</time>
</trkpt>
<trkpt lat="40.5417680" lon="14.2023280">
<ele>168.859207</ele>
<time>2015-01-29T10:55:37.000Z</time>
</trkpt>
<trkpt lat="40.5417130" lon="14.2023290">
<ele>167.030396</ele>
<time>2015-01-29T10:55:51.000Z</time>
</trkpt>
<trkpt lat="40.5416760" lon="14.2023130">
<ele>163.982407</ele>
<time>2015-01-29T10:56:02.000Z</time>
</trkpt>
<trkpt lat="40.5416360" lon="14.2022920">
<ele>161.544006</ele>
<time>2015-01-29T10:56:11.000Z</time>
</trkpt>
<trkpt lat="40.5416180" lon="14.2022870">
<ele>159.715195</ele>
<time>2015-01-29T10:56:16.000Z</time>
</trkpt>
<trkpt lat="40.5416100" lon="14.2022840">
<ele>158.800797</ele>
<time>2015-01-29T10:56:26.000Z</time>
</trkpt>
<trkpt lat="40.5416000" lon="14.2022740">
<ele>158.800797</ele>
<time>2015-01-29T10:56:31.000Z</time>
</trkpt>
<trkpt lat="40.5415610" lon="14.2022150">
<ele>155.447998</ele>
<time>2015-01-29T10:56:41.000Z</time>
</trkpt>
<trkpt lat="40.5415720" lon="14.2021470">
<ele>153.619202</ele>
<time>2015-01-29T10:56:50.000Z</time>
</trkpt>
<trkpt lat="40.5415510" lon="14.2021050">
<ele>151.180801</ele>
<time>2015-01-29T10:57:01.000Z</time>
</trkpt>
<trkpt lat="40.5415410" lon="14.2020680">
<ele>148.742401</ele>
<time>2015-01-29T10:57:10.000Z</time>
</trkpt>
<trkpt lat="40.5415390" lon="14.2020360">
<ele>146.304001</ele>
<time>2015-01-29T10:57:21.000Z</time>
</trkpt>
<trkpt lat="40.5415440" lon="14.2019950">
<ele>143.865601</ele>
<time>2015-01-29T10:57:31.000Z</time>
</trkpt>
<trkpt lat="40.5415730" lon="14.2019290">
<ele>142.341599</ele>
<time>2015-01-29T10:57:41.000Z</time>
</trkpt>
<trkpt lat="40.5415740" lon="14.2018730">
<ele>139.598404</ele>
<time>2015-01-29T10:57:54.000Z</time>
</trkpt>
<trkpt lat="40.5415740" lon="14.2018230">
<ele>136.550400</ele>
<time>2015-01-29T10:58:03.000Z</time>
</trkpt>
<trkpt lat="40.5415700" lon="14.2017780">
<ele>134.112000</ele>
<time>2015-01-29T10:58:14.000Z</time>
</trkpt>
<trkpt lat="40.5415650" lon="14.2017220">
<ele>132.283203</ele>
<time>2015-01-29T10:58:23.000Z</time>
</trkpt>
<trkpt lat="40.5415630" lon="14.2016650">
<ele>129.539993</ele>
<time>2015-01-29T10:58:38.000Z</time>
</trkpt>
<trkpt lat="40.5415560" lon="14.2016100">
<ele>126.491997</ele>
<time>2015-01-29T10:58:49.000Z</time>
</trkpt>
<trkpt lat="40.5415560" lon="14.2015580">
<ele>124.053596</ele>
<time>2015-01-29T10:59:00.000Z</time>
</trkpt>
<trkpt lat="40.5415570" lon="14.2014980">
<ele>120.700798</ele>
<time>2015-01-29T10:59:12.000Z</time>
</trkpt>
<trkpt lat="40.5416140" lon="14.2014210">
<ele>119.786400</ele>
<time>2015-01-29T10:59:23.000Z</time>
</trkpt>
<trkpt lat="40.5416450" lon="14.2013680">
<ele>118.262398</ele>
<time>2015-01-29T10:59:32.000Z</time>
</trkpt>
<trkpt lat="40.5416760" lon="14.2013380">
<ele>116.433601</ele>
<time>2015-01-29T10:59:46.000Z</time>
</trkpt>
<trkpt lat="40.5416710" lon="14.2013290">
<ele>116.128799</ele>
<time>2015-01-29T10:59:56.000Z</time>
</trkpt>
<trkpt lat="40.5416680" lon="14.2013230">
<ele>114.909599</ele>
<time>2015-01-29T11:00:18.000Z</time>
</trkpt>
<trkpt lat="40.5416450" lon="14.2013660">
<ele>115.519203</ele>
<time>2015-01-29T11:00:41.000Z</time>
</trkpt>
<trkpt lat="40.5416210" lon="14.2013840">
<ele>114.909599</ele>
<time>2015-01-29T11:00:45.000Z</time>
</trkpt>
<trkpt lat="40.5414740" lon="14.2014530">
<ele>113.080803</ele>
<time>2015-01-29T11:00:57.000Z</time>
</trkpt>
<trkpt lat="40.5412780" lon="14.2015820">
<ele>111.251999</ele>
<time>2015-01-29T11:01:16.000Z</time>
</trkpt>
<trkpt lat="40.5411450" lon="14.2016760">
<ele>109.727997</ele>
<time>2015-01-29T11:01:30.000Z</time>
</trkpt>
<trkpt lat="40.5411230" lon="14.2016900">
<ele>109.118401</ele>
<time>2015-01-29T11:01:40.000Z</time>
</trkpt>
<trkpt lat="40.5411110" lon="14.2016930">
<ele>109.118401</ele>
<time>2015-01-29T11:01:54.000Z</time>
</trkpt>
<trkpt lat="40.5411540" lon="14.2017350">
<ele>109.118401</ele>
<time>2015-01-29T11:02:18.000Z</time>
</trkpt>
<trkpt lat="40.5411650" lon="14.2017470">
<ele>109.118401</ele>
<time>2015-01-29T11:02:44.000Z</time>
</trkpt>
<trkpt lat="40.5411130" lon="14.2017310">
<ele>109.118401</ele>
<time>2015-01-29T11:02:59.000Z</time>
</trkpt>
<trkpt lat="40.5410530" lon="14.2017280">
<ele>109.118401</ele>
<time>2015-01-29T11:03:09.000Z</time>
</trkpt>
<trkpt lat="40.5411030" lon="14.2016450">
<ele>107.899200</ele>
<time>2015-01-29T11:06:10.000Z</time>
</trkpt>
</trkseg>
</trk>
</gpx>
